Time;durP1;ratioP1;P1;durP2;ratioP2;P2;SDS_P1;SDS_P2;PMS_P1;PMS_P2;Temp;Humidity;BMP_temperature;BMP_pressure;BME280_temperature;BME280_humidity;BME280_pressure;Samples;Min_cycle;Max_cycle;Signal;HPM_P1;HPM_P2
2023/06/05 00:00:15;;;;;;;3.45;1.65;;;;;;;11.69;63.68;101216.44;5012834;28;20068;-48
2023/06/05 00:02:42;;;;;;;5.32;2.78;;;;;;;11.72;63.04;101213.00;5013452;28;20089;-48
2023/06/05 00:05:09;;;;;;;7.55;2.08;;;;;;;11.74;62.21;101208.69;5013181;28;20041;-49
2023/06/05 00:07:37;;;;;;;4.80;2.00;;;;;;;11.75;62.76;101211.31;5013479;28;20057;-45
2023/06/05 00:10:07;;;;;;;5.78;2.10;;;;;;;11.77;63.11;101208.72;5015151;28;20041;-45
2023/06/05 00:12:34;;;;;;;5.10;2.60;;;;;;;11.80;62.29;101203.56;5010111;28;20049;-46
2023/06/05 00:15:02;;;;;;;4.93;2.28;;;;;;;11.83;62.95;101209.66;5020505;28;20153;-48
2023/06/05 00:17:30;;;;;;;4.95;1.52;;;;;;;11.85;62.76;101207.09;5024095;28;20116;-51
2023/06/05 00:19:58;;;;;;;6.28;2.00;;;;;;;11.86;62.33;101207.97;5020645;28;20037;-47
2023/06/05 00:22:27;;;;;;;4.47;2.17;;;;;;;11.86;63.19;101202.78;5015007;28;20369;-47
2023/06/05 00:24:55;;;;;;;5.82;2.10;;;;;;;11.85;63.79;101203.63;5023378;28;20080;-46
2023/06/05 00:27:22;;;;;;;7.18;2.58;;;;;;;11.85;62.84;101207.09;5020047;28;20049;-49
2023/06/05 00:29:49;;;;;;;4.57;2.58;;;;;;;11.85;63.27;101201.03;5020070;28;20045;-46
2023/06/05 00:32:17;;;;;;;4.68;2.00;;;;;;;11.81;63.08;101195.81;5024035;28;20490;-47
2023/06/05 00:34:44;;;;;;;4.70;2.60;;;;;;;11.85;63.60;101198.44;5023013;28;20068;-49
2023/06/05 00:37:13;;;;;;;9.55;2.47;;;;;;;11.82;63.60;101200.13;5027252;28;20383;-47
2023/06/05 00:39:40;;;;;;;3.65;1.88;;;;;;;11.82;63.61;101200.13;5019154;28;20092;-51
2023/06/05 00:42:09;;;;;;;5.97;3.67;;;;;;;11.80;63.22;101204.47;5014752;28;20602;-49
2023/06/05 00:44:36;;;;;;;4.93;1.70;;;;;;;11.74;63.43;101191.41;5025243;28;20041;-46
2023/06/05 00:47:05;;;;;;;6.57;1.92;;;;;;;11.72;64.39;101200.88;5020989;28;20080;-46
2023/06/05 00:49:32;;;;;;;5.05;2.10;;;;;;;11.75;63.67;101193.13;5019021;28;20052;-47
2023/06/05 00:51:59;;;;;;;3.85;1.70;;;;;;;11.76;63.86;101192.28;5016529;28;20052;-49
2023/06/05 00:54:27;;;;;;;4.05;1.98;;;;;;;11.73;63.21;101189.66;5023210;28;20132;-49
2023/06/05 00:56:55;;;;;;;4.22;1.83;;;;;;;11.74;63.95;101203.50;5025635;28;20066;-49
2023/06/05 00:59:22;;;;;;;5.90;1.73;;;;;;;11.67;64.87;101197.38;5015098;28;20049;-46
2023/06/05 01:01:50;;;;;;;4.68;2.42;;;;;;;11.69;63.53;101190.50;5018389;28;20660;-47
2023/06/05 01:04:17;;;;;;;4.88;1.98;;;;;;;11.68;63.51;101189.63;5013893;28;20137;-47
2023/06/05 01:06:45;;;;;;;5.63;1.55;;;;;;;11.70;63.88;101181.84;5025583;28;20045;-47
2023/06/05 01:09:13;;;;;;;4.18;1.52;;;;;;;11.72;63.52;101187.91;5025016;28;20103;-47
2023/06/05 01:11:53;;;;;;;3.60;1.52;;;;;;;11.65;64.85;101183.53;5023437;28;20042;-46
2023/06/05 01:14:23;;;;;;;3.72;1.77;;;;;;;11.71;63.51;101191.38;5026914;28;20510;-48
2023/06/05 01:16:56;;;;;;;8.15;1.80;;;;;;;11.72;64.03;101185.31;5022454;28;20045;-48
2023/06/05 01:19:25;;;;;;;6.28;2.05;;;;;;;11.72;64.39;101185.31;5025170;28;20693;-47
2023/06/05 01:21:52;;;;;;;5.03;2.00;;;;;;;11.72;64.54;101179.28;5013769;28;20513;-48
2023/06/05 01:24:22;;;;;;;5.50;1.63;;;;;;;11.72;64.86;101187.06;5017468;28;20125;-45
2023/06/05 01:27:29;;;;;;;4.80;2.13;;;;;;;11.68;64.23;101183.53;5026836;28;20056;-47
2023/06/05 01:30:24;;;;;;;3.95;1.80;;;;;;;11.69;64.10;101180.13;5016086;28;20049;-45
2023/06/05 01:33:01;;;;;;;3.55;1.75;;;;;;;11.74;64.44;101178.44;5022849;28;20128;-48
2023/06/05 01:35:33;;;;;;;7.70;1.88;;;;;;;11.72;63.96;101182.72;4984197;28;20057;-45
2023/06/05 01:38:05;;;;;;;6.75;1.83;;;;;;;11.76;63.70;101178.44;5002817;28;20081;-49
2023/06/05 01:40:34;;;;;;;9.95;1.63;;;;;;;11.75;63.80;101176.72;5013086;28;20045;-47
2023/06/05 01:43:02;;;;;;;6.03;2.13;;;;;;;11.77;64.65;101183.66;5016928;28;20061;-46
2023/06/05 01:45:30;;;;;;;5.65;2.30;;;;;;;11.78;63.48;101175.00;5004515;28;20413;-44
2023/06/05 01:47:57;;;;;;;13.75;2.53;;;;;;;11.78;63.70;101175.00;5001603;28;20048;-46
2023/06/05 01:50:25;;;;;;;7.85;2.20;;;;;;;11.77;64.35;101173.28;5003986;28;20042;-44
2023/06/05 01:52:52;;;;;;;6.07;2.13;;;;;;;11.78;63.67;101172.41;4999192;28;20151;-44
2023/06/05 01:55:23;;;;;;;4.60;2.00;;;;;;;11.81;63.42;101175.03;4999255;28;20548;-47
2023/06/05 01:57:50;;;;;;;5.20;2.10;;;;;;;11.82;64.29;101176.78;5004346;28;20049;-49
2023/06/05 02:00:18;;;;;;;7.03;2.17;;;;;;;11.84;63.74;101174.19;5001421;28;20073;-48
2023/06/05 02:02:47;;;;;;;4.32;2.15;;;;;;;11.82;63.82;101169.00;5003714;28;20042;-49
2023/06/05 02:05:16;;;;;;;5.50;2.28;;;;;;;11.82;63.23;101169.00;5004037;28;20049;-51
2023/06/05 02:07:53;;;;;;;9.25;3.10;;;;;;;11.83;63.66;101173.31;5003726;28;20041;-47
2023/06/05 02:10:20;;;;;;;4.25;2.22;;;;;;;11.85;63.56;101164.69;5002126;28;21051;-46
2023/06/05 02:12:47;;;;;;;5.55;2.05;;;;;;;11.85;64.74;101165.53;5001163;28;20045;-49
2023/06/05 02:15:14;;;;;;;7.55;2.40;;;;;;;11.85;64.50;101167.28;5000194;28;20144;-48
2023/06/05 02:17:49;;;;;;;9.57;2.47;;;;;;;11.81;64.45;101164.66;5004825;28;20049;-44
2023/06/05 02:20:17;;;;;;;6.65;3.08;;;;;;;11.78;64.00;101159.44;4998450;28;20046;-49
2023/06/05 02:22:44;;;;;;;7.28;2.60;;;;;;;11.75;64.83;101164.59;5000973;28;20077;-48
2023/06/05 02:25:11;;;;;;;8.10;2.60;;;;;;;11.75;65.05;101156.81;4999601;28;20137;-44
2023/06/05 02:27:38;;;;;;;6.00;2.63;;;;;;;11.77;65.15;101168.09;5005019;28;20387;-45
2023/06/05 02:30:37;;;;;;;5.90;2.67;;;;;;;11.80;63.87;101162.94;5000955;28;20057;-48
2023/06/05 02:33:05;;;;;;;6.47;2.70;;;;;;;11.78;64.42;101159.44;5003392;28;20086;-46
2023/06/05 02:35:33;;;;;;;4.70;2.72;;;;;;;11.78;63.87;101154.25;5002646;28;20050;-50
2023/06/05 02:38:01;;;;;;;7.65;3.15;;;;;;;11.77;65.26;101152.50;4999846;28;20050;-49
2023/06/05 02:40:29;;;;;;;6.10;2.38;;;;;;;11.79;64.72;101155.97;4999970;28;20046;-51
2023/06/05 02:42:56;;;;;;;10.05;2.53;;;;;;;11.79;64.69;101155.13;5008866;28;20041;-47
2023/06/05 02:45:23;;;;;;;7.03;2.95;;;;;;;11.80;63.83;101151.66;4998558;28;20056;-46
2023/06/05 02:47:50;;;;;;;7.97;2.53;;;;;;;11.81;63.84;101154.28;5005251;28;20077;-47
2023/06/05 02:50:17;;;;;;;8.38;2.60;;;;;;;11.82;64.30;101149.94;5000537;28;20108;-48
2023/06/05 02:52:44;;;;;;;6.10;2.47;;;;;;;11.79;64.79;101148.19;5004739;28;20103;-47
2023/06/05 02:55:11;;;;;;;6.32;2.20;;;;;;;11.81;64.98;101143.91;4998329;28;20082;-45
2023/06/05 02:57:41;;;;;;;6.65;2.13;;;;;;;11.81;65.04;101143.91;4999128;28;20049;-48
2023/06/05 03:00:16;;;;;;;7.05;2.10;;;;;;;11.82;64.61;101148.22;5005057;28;20056;-48
2023/06/05 03:02:48;;;;;;;8.63;2.67;;;;;;;11.83;64.58;101144.75;5003164;28;20050;-47
2023/06/05 03:05:24;;;;;;;6.03;2.90;;;;;;;11.86;64.86;101135.28;4999376;28;20048;-48
2023/06/05 03:07:53;;;;;;;7.47;2.83;;;;;;;11.86;64.97;101135.28;5005075;28;20053;-48
2023/06/05 03:10:21;;;;;;;6.47;2.70;;;;;;;11.87;64.46;101137.00;4999211;28;20204;-46
2023/06/05 03:12:48;;;;;;;8.30;2.70;;;;;;;11.89;64.92;101132.72;5005100;28;20142;-51
2023/06/05 03:15:17;;;;;;;6.70;2.70;;;;;;;11.88;64.99;101139.63;5002046;28;20550;-48
2023/06/05 03:17:45;;;;;;;5.68;2.75;;;;;;;11.90;64.13;101137.06;5004275;28;20053;-47
2023/06/05 03:20:13;;;;;;;6.75;3.20;;;;;;;11.88;64.96;101130.97;5002396;28;20133;-47
2023/06/05 03:22:40;;;;;;;7.63;3.03;;;;;;;11.89;63.87;101135.31;5004487;28;20050;-46
2023/06/05 03:25:08;;;;;;;5.70;2.47;;;;;;;11.87;64.16;101131.81;5004226;28;20718;-45
2023/06/05 03:27:36;;;;;;;5.25;2.70;;;;;;;11.87;65.20;101131.81;5000724;28;20132;-46
2023/06/05 03:30:04;;;;;;;5.50;2.95;;;;;;;11.88;64.54;101136.16;5002525;28;20056;-49
2023/06/05 03:32:31;;;;;;;8.10;2.70;;;;;;;11.85;65.40;101134.41;4990951;28;20051;-51
2023/06/05 03:34:58;;;;;;;6.43;2.55;;;;;;;11.85;64.21;101128.34;4993461;28;20480;-49
2023/06/05 03:37:25;;;;;;;7.07;2.80;;;;;;;11.85;65.24;101130.94;5007591;28;20088;-49
2023/06/05 03:39:52;;;;;;;9.38;2.85;;;;;;;11.82;65.06;101124.88;5008435;28;20045;-47
2023/06/05 03:42:19;;;;;;;10.52;2.90;;;;;;;11.81;64.67;101123.13;4995420;28;20709;-47
2023/06/05 03:44:47;;;;;;;7.78;2.67;;;;;;;11.80;64.67;101121.41;5006653;28;20050;-46
2023/06/05 03:47:14;;;;;;;7.75;3.35;;;;;;;11.82;64.10;101122.25;5001320;28;20061;-45
2023/06/05 03:49:45;;;;;;;6.72;2.70;;;;;;;11.81;65.27;101123.13;5001963;28;20056;-45
2023/06/05 03:52:14;;;;;;;5.63;2.63;;;;;;;11.83;64.06;101131.78;5002711;28;20227;-46
2023/06/05 03:54:44;;;;;;;7.25;4.07;;;;;;;11.83;64.93;101131.78;5003330;28;20618;-45
2023/06/05 03:57:14;;;;;;;6.40;2.70;;;;;;;11.85;64.47;101128.34;5001133;28;20050;-50
2023/06/05 03:59:41;;;;;;;;;;;;;;;11.69;64.66;101134.25;5002067;28;20056;-48
2023/06/05 04:02:08;;;;;;;4.80;1.88;;;;;;;11.73;65.61;101134.28;5004944;28;19933;-47
2023/06/05 04:04:35;;;;;;;4.00;1.90;;;;;;;11.73;64.34;101134.28;5007214;28;20053;-47
2023/06/05 04:07:02;;;;;;;7.00;2.78;;;;;;;11.70;64.62;101129.94;5006670;28;20048;-46
2023/06/05 04:09:29;;;;;;;7.18;2.30;;;;;;;11.70;65.78;101135.13;5006300;28;20038;-48
2023/06/05 04:11:55;;;;;;;6.05;2.50;;;;;;;11.69;65.16;101134.25;5005119;28;20096;-49
2023/06/05 04:14:22;;;;;;;6.43;2.67;;;;;;;11.70;65.62;101135.13;4998969;28;20104;-45
2023/06/05 04:16:49;;;;;;;8.07;2.90;;;;;;;11.70;64.90;101132.53;5002596;28;20050;-48
2023/06/05 04:19:16;;;;;;;5.88;2.25;;;;;;;11.74;65.46;101138.63;5001601;28;20054;-46
2023/06/05 04:21:42;;;;;;;5.25;2.60;;;;;;;11.74;64.44;101131.72;5002851;28;20042;-48
2023/06/05 04:24:10;;;;;;;5.20;2.30;;;;;;;11.74;64.79;101133.44;4999229;28;20080;-47
2023/06/05 04:26:41;;;;;;;5.20;2.38;;;;;;;11.74;64.92;101126.53;4997096;28;20129;-47
2023/06/05 04:29:13;;;;;;;5.07;2.15;;;;;;;11.73;64.94;101129.97;5002803;28;20058;-50
2023/06/05 04:31:45;;;;;;;7.93;2.10;;;;;;;11.70;64.81;101129.94;5000668;28;20069;-46
2023/06/05 04:34:12;;;;;;;4.18;1.95;;;;;;;11.67;65.50;101122.13;5001507;28;20132;-48
2023/06/05 04:36:40;;;;;;;4.20;1.83;;;;;;;11.64;65.12;101130.75;4990687;28;20104;-46
2023/06/05 04:39:14;;;;;;;4.45;1.95;;;;;;;11.62;64.75;101135.03;4997749;28;20058;-47
2023/06/05 04:41:46;;;;;;;6.85;2.72;;;;;;;11.61;65.59;101135.03;5001870;28;20100;-50
2023/06/05 04:44:20;;;;;;;6.45;2.10;;;;;;;11.59;65.27;101131.56;5001297;28;20045;-46
2023/06/05 04:46:46;;;;;;;6.28;2.10;;;;;;;11.54;65.03;101124.59;4996956;28;20076;-48
2023/06/05 04:49:14;;;;;;;4.32;1.98;;;;;;;11.57;65.42;101123.75;4997317;28;20058;-47
2023/06/05 04:51:43;;;;;;;5.40;2.33;;;;;;;11.57;65.45;101129.81;4992023;28;20104;-47
2023/06/05 04:54:10;;;;;;;5.03;2.17;;;;;;;11.59;65.65;101135.03;4995240;28;20057;-46
2023/06/05 04:56:39;;;;;;;6.45;4.28;;;;;;;11.59;65.62;101131.56;4997102;28;20569;-48
2023/06/05 04:59:06;;;;;;;5.22;2.17;;;;;;;11.60;65.83;101134.16;4993759;28;20065;-48
2023/06/05 05:01:33;;;;;;;3.95;2.03;;;;;;;11.57;65.51;101134.13;5013812;28;20045;-46
2023/06/05 05:04:00;;;;;;;4.07;1.58;;;;;;;11.55;65.51;101136.72;5017376;28;20457;-49
2023/06/05 05:06:27;;;;;;;7.47;3.38;;;;;;;11.51;64.93;101134.94;5016559;28;20546;-49
2023/06/05 05:08:53;;;;;;;4.70;1.80;;;;;;;11.52;64.85;101135.81;5016856;28;20509;-45
2023/06/05 05:11:20;;;;;;;4.40;2.47;;;;;;;11.54;65.86;101137.56;5012660;28;20556;-48
2023/06/05 05:13:47;;;;;;;5.70;2.13;;;;;;;11.54;66.25;101140.16;5019781;28;20061;-50
2023/06/05 05:16:14;;;;;;;5.97;2.20;;;;;;;11.56;65.72;101137.59;5018117;28;20060;-48
2023/06/05 05:18:44;;;;;;;5.40;1.75;;;;;;;11.59;65.79;101136.75;5024170;28;20506;-49
2023/06/05 05:21:11;;;;;;;;;;;;;;;11.44;65.99;101151.28;5021925;28;20049;-47
2023/06/05 05:23:37;;;;;;;4.43;1.33;;;;;;;11.49;65.20;101141.84;5021189;28;19956;-45
2023/06/05 05:26:04;;;;;;;3.40;1.50;;;;;;;11.52;65.27;101133.22;5013549;28;20046;-50
2023/06/05 05:28:31;;;;;;;4.38;1.50;;;;;;;11.55;65.08;101135.84;5016500;28;20117;-46
2023/06/05 05:30:58;;;;;;;5.75;1.73;;;;;;;11.56;64.46;101133.25;5021259;28;20104;-48
2023/06/05 05:33:25;;;;;;;3.17;1.40;;;;;;;11.57;65.33;101135.00;5018876;28;20153;-48
2023/06/05 05:35:52;;;;;;;4.68;1.85;;;;;;;11.56;64.67;101138.44;5021591;28;20068;-47
2023/06/05 05:38:18;;;;;;;7.95;1.80;;;;;;;11.56;65.63;101135.84;5013097;28;20046;-47
2023/06/05 05:40:45;;;;;;;4.55;1.35;;;;;;;11.56;65.66;101138.44;5013490;28;20050;-51
2023/06/05 05:43:12;;;;;;;4.13;1.50;;;;;;;11.56;65.63;101142.78;5024045;28;20045;-50
2023/06/05 05:45:39;;;;;;;4.00;1.95;;;;;;;11.57;65.23;101142.78;5016082;28;20537;-50
2023/06/05 05:48:07;;;;;;;2.80;1.38;;;;;;;11.60;65.05;101138.47;5025572;28;20123;-48
2023/06/05 05:50:33;;;;;;;2.83;1.27;;;;;;;11.61;64.56;101140.22;5023955;28;20049;-49
2023/06/05 05:53:00;;;;;;;2.90;1.35;;;;;;;11.63;64.46;101148.91;5018636;28;20049;-46
2023/06/05 05:55:27;;;;;;;7.95;1.77;;;;;;;11.66;65.53;101143.75;5017201;28;20052;-49
2023/06/05 05:57:53;;;;;;;2.75;1.52;;;;;;;11.69;65.34;101144.63;5013925;28;20049;-45
2023/06/05 06:00:21;;;;;;;3.35;1.30;;;;;;;11.73;65.22;101135.16;5015620;28;20045;-49
2023/06/05 06:02:48;;;;;;;3.67;1.27;;;;;;;11.77;64.04;101147.31;5019330;28;20124;-47
2023/06/05 06:05:15;;;;;;;7.13;1.75;;;;;;;11.85;64.71;101143.94;5021553;28;20215;-52
2023/06/05 06:07:42;;;;;;;3.33;1.50;;;;;;;11.88;63.81;101143.94;5012860;28;20056;-46
2023/06/05 06:10:11;;;;;;;6.70;1.45;;;;;;;11.93;64.30;101139.69;5013291;28;20054;-47
2023/06/05 06:12:40;;;;;;;2.78;1.10;;;;;;;11.93;63.87;101144.88;5020558;28;20053;-48
2023/06/05 06:15:07;;;;;;;3.58;1.67;;;;;;;11.96;63.06;101137.97;5015781;28;20064;-48
2023/06/05 06:17:34;;;;;;;3.13;1.30;;;;;;;12.01;64.05;101145.81;5018444;28;20460;-48
2023/06/05 06:20:07;;;;;;;3.28;1.63;;;;;;;12.04;63.36;101151.03;5013457;28;20049;-45
2023/06/05 06:22:33;;;;;;;3.20;1.30;;;;;;;12.07;62.55;101151.09;5015067;28;20049;-46
2023/06/05 06:25:01;;;;;;;3.67;1.45;;;;;;;12.10;62.64;101145.06;5019444;28;20115;-48
2023/06/05 06:27:28;;;;;;;3.35;1.27;;;;;;;12.14;62.69;101151.13;5022025;28;20128;-48
2023/06/05 06:30:02;;;;;;;2.67;1.00;;;;;;;12.17;62.96;101152.03;5011845;28;20096;-48
2023/06/05 06:32:28;;;;;;;4.43;1.42;;;;;;;12.20;61.89;101159.00;5013899;28;20068;-46
2023/06/05 06:34:56;;;;;;;3.30;1.30;;;;;;;12.21;62.52;101147.72;5020991;28;20089;-48
2023/06/05 06:37:22;;;;;;;4.68;1.75;;;;;;;12.27;62.00;101146.91;5022997;28;20041;-47
2023/06/05 06:39:50;;;;;;;1.90;0.77;;;;;;;12.30;62.72;101147.78;5017341;28;20438;-46
2023/06/05 06:42:16;;;;;;;2.22;1.10;;;;;;;12.30;61.17;101150.38;5010369;28;20045;-48
2023/06/05 06:44:43;;;;;;;4.15;1.30;;;;;;;12.29;61.02;101159.06;5022999;28;20061;-50
2023/06/05 06:47:10;;;;;;;3.97;1.45;;;;;;;12.35;62.16;101160.81;5011200;28;20131;-51
2023/06/05 06:49:39;;;;;;;2.10;0.88;;;;;;;12.40;61.01;101163.47;5013685;28;20132;-47
2023/06/05 06:52:06;;;;;;;4.20;1.10;;;;;;;12.43;61.87;101155.72;5014834;28;20053;-48
2023/06/05 06:54:32;;;;;;;3.08;1.25;;;;;;;12.43;61.02;101163.50;5017778;28;20064;-46
2023/06/05 06:56:59;;;;;;;3.45;1.48;;;;;;;12.45;61.94;101161.75;5019368;28;20064;-47
2023/06/05 06:59:27;;;;;;;4.00;1.40;;;;;;;12.49;61.61;101158.34;5021777;28;20103;-50
2023/06/05 07:02:15;;;;;;;2.17;1.15;;;;;;;12.43;61.05;101171.28;5019380;28;20123;-47
2023/06/05 07:04:44;;;;;;;2.72;1.48;;;;;;;12.46;61.13;101158.31;5017822;28;20050;-45
2023/06/05 07:07:14;;;;;;;2.78;1.05;;;;;;;12.47;61.73;101162.66;5018203;28;20107;-51
2023/06/05 07:09:42;;;;;;;4.25;1.35;;;;;;;12.46;61.27;101160.91;5015795;28;20053;-51
2023/06/05 07:12:11;;;;;;;2.53;0.90;;;;;;;12.49;61.68;101155.72;5012133;28;20107;-49
2023/06/05 07:14:39;;;;;;;3.15;2.47;;;;;;;12.51;60.57;101167.03;5014784;28;20761;-50
2023/06/05 07:17:07;;;;;;;2.53;0.85;;;;;;;12.48;61.22;101161.78;5022553;28;20053;-49
2023/06/05 07:19:36;;;;;;;3.80;1.50;;;;;;;12.53;61.19;101154.91;5022470;28;21255;-48
2023/06/05 07:22:04;;;;;;;2.63;1.10;;;;;;;12.58;60.87;101168.81;5015658;28;20132;-48
2023/06/05 07:24:32;;;;;;;2.78;1.65;;;;;;;12.59;60.59;101169.66;5017260;28;20121;-49
2023/06/05 07:27:01;;;;;;;2.80;1.40;;;;;;;12.63;61.57;101170.56;5013422;28;20119;-49
2023/06/05 07:29:28;;;;;;;3.35;1.17;;;;;;;12.65;61.22;101179.22;5018694;28;20519;-49
2023/06/05 07:31:57;;;;;;;3.80;1.30;;;;;;;12.70;60.31;101177.56;5019078;28;20041;-53
2023/06/05 07:34:26;;;;;;;2.95;1.35;;;;;;;12.71;60.57;101174.09;5022964;28;20046;-51
2023/06/05 07:36:53;;;;;;;2.88;1.30;;;;;;;12.75;61.20;101175.84;5023915;28;20053;-46
2023/06/05 07:39:21;;;;;;;3.17;0.93;;;;;;;12.77;60.28;101176.69;5019194;28;20084;-45
2023/06/05 07:41:48;;;;;;;3.90;1.45;;;;;;;12.80;61.46;101179.31;5018409;28;20049;-51
2023/06/05 07:44:17;;;;;;;3.38;1.20;;;;;;;12.87;60.28;101179.38;5022697;28;20048;-47
2023/06/05 07:46:45;;;;;;;3.42;1.30;;;;;;;12.87;60.67;101184.56;5022870;28;20041;-48
2023/06/05 07:49:14;;;;;;;4.05;1.90;;;;;;;12.84;61.17;101181.09;5020109;28;20450;-45
2023/06/05 07:51:42;;;;;;;3.00;1.35;;;;;;;12.88;61.34;101186.31;5020302;28;20128;-47
2023/06/05 07:54:10;;;;;;;4.85;1.55;;;;;;;12.92;60.68;101193.25;5020979;28;20061;-50
2023/06/05 07:56:38;;;;;;;4.15;1.30;;;;;;;12.96;60.59;101189.81;5019563;28;20120;-48
2023/06/05 07:59:06;;;;;;;2.65;1.98;;;;;;;12.99;60.41;101189.84;5020653;28;20421;-48
2023/06/05 08:01:36;;;;;;;2.80;1.00;;;;;;;13.01;60.90;101189.84;5021336;28;20141;-48
2023/06/05 08:04:04;;;;;;;2.20;0.90;;;;;;;12.95;60.68;101193.28;5023414;28;20124;-49
2023/06/05 08:06:31;;;;;;;3.38;1.10;;;;;;;12.97;60.69;101191.56;5023572;28;20053;-49
2023/06/05 08:08:59;;;;;;;3.60;1.20;;;;;;;13.01;59.75;101189.84;5015004;28;20050;-51
2023/06/05 08:11:26;;;;;;;2.97;1.20;;;;;;;12.98;60.85;101188.97;5021650;28;20064;-47
2023/06/05 08:13:55;;;;;;;2.88;1.70;;;;;;;13.02;59.89;101195.06;5014221;28;20103;-46
2023/06/05 08:16:22;;;;;;;2.28;1.23;;;;;;;13.05;60.36;101200.28;5017557;28;20049;-50
2023/06/05 08:18:49;;;;;;;4.28;1.50;;;;;;;13.05;60.50;101195.09;5018612;28;20096;-46
2023/06/05 08:21:16;;;;;;;3.15;1.15;;;;;;;13.08;59.90;101195.06;5020746;28;20064;-50
2023/06/05 08:23:43;;;;;;;3.72;1.58;;;;;;;13.09;61.09;101191.63;5018506;28;20042;-52
2023/06/05 08:26:11;;;;;;;5.05;1.70;;;;;;;13.09;60.01;101195.97;5017022;28;20095;-49
2023/06/05 08:28:39;;;;;;;3.17;1.40;;;;;;;13.17;60.72;101198.63;5020158;28;20049;-47
2023/06/05 08:31:07;;;;;;;5.20;1.25;;;;;;;13.16;59.38;101194.25;5024737;28;20140;-50
2023/06/05 08:33:35;;;;;;;3.28;1.00;;;;;;;13.18;60.39;101192.53;5025689;28;20056;-48
2023/06/05 08:36:03;;;;;;;5.93;1.60;;;;;;;13.20;60.40;101193.41;5016199;28;20049;-50
2023/06/05 08:38:30;;;;;;;4.22;1.63;;;;;;;13.25;60.79;101186.50;5024826;28;20049;-50
2023/06/05 08:41:05;;;;;;;3.05;1.70;;;;;;;13.31;59.38;101191.72;5014201;28;20065;-48
2023/06/05 08:43:32;;;;;;;2.08;0.98;;;;;;;13.31;60.03;101191.72;5018787;28;20136;-50
2023/06/05 08:45:59;;;;;;;2.83;1.48;;;;;;;13.35;59.09;101188.25;5012093;28;20378;-52
2023/06/05 08:48:26;;;;;;;6.40;1.42;;;;;;;13.36;59.15;101183.94;5014361;28;20050;-48
2023/06/05 08:50:54;;;;;;;2.25;1.27;;;;;;;13.40;59.30;101190.03;5020152;28;20056;-49
2023/06/05 08:53:26;;;;;;;2.30;1.08;;;;;;;13.45;59.65;101181.38;5019161;28;20041;-50
2023/06/05 08:55:55;;;;;;;5.13;1.65;;;;;;;13.49;58.36;101185.78;5019119;28;20513;-47
2023/06/05 08:58:22;;;;;;;3.00;2.17;;;;;;;13.58;59.29;101182.31;5015929;28;20045;-47
2023/06/05 09:00:50;;;;;;;6.65;1.42;;;;;;;13.59;58.26;101181.47;5016263;28;20494;-47
2023/06/05 09:03:19;;;;;;;3.22;1.67;;;;;;;13.67;59.66;101189.28;5017211;28;20173;-46
2023/06/05 09:05:48;;;;;;;3.75;1.60;;;;;;;13.71;58.31;101182.38;5019552;28;20421;-46
2023/06/05 09:08:16;;;;;;;3.15;1.60;;;;;;;13.78;58.34;101171.06;5017786;28;20493;-48
2023/06/05 09:10:43;;;;;;;2.80;1.13;;;;;;;13.83;58.14;101169.38;5019275;28;20049;-48
2023/06/05 09:13:10;;;;;;;4.25;1.38;;;;;;;13.94;58.62;101177.19;5025015;28;20046;-46
2023/06/05 09:15:38;;;;;;;6.45;1.88;;;;;;;14.00;58.52;101176.31;5018577;28;20048;-47
2023/06/05 09:20:45;;;;;;;3.05;1.67;;;;;;;14.18;58.05;101179.84;5124014;27;20379;-48
2023/06/05 09:23:28;;;;;;;3.80;2.00;;;;;;;14.23;57.82;101178.09;5048585;27;20075;-47
2023/06/05 09:25:58;;;;;;;4.22;2.33;;;;;;;14.27;57.72;101179.81;5040303;28;20412;-47
2023/06/05 09:28:26;;;;;;;3.22;1.55;;;;;;;14.24;57.30;101179.81;5034218;28;20060;-52
2023/06/05 09:33:34;;;;;;;3.95;2.53;;;;;;;14.28;57.65;101176.34;5102912;27;20207;-48
2023/06/05 09:36:06;;;;;;;9.55;2.83;;;;;;;14.31;57.87;101181.56;5053732;28;20048;-49
2023/06/05 09:38:34;;;;;;;3.53;2.60;;;;;;;14.31;57.18;101181.56;5052402;28;20068;-47
2023/06/05 09:41:10;;;;;;;4.78;2.65;;;;;;;14.33;57.65;101185.03;5066490;28;20062;-47
2023/06/05 09:43:38;;;;;;;7.60;2.38;;;;;;;14.33;56.70;101185.03;5081501;28;20054;-47
2023/06/05 09:46:10;;;;;;;4.82;3.17;;;;;;;14.32;56.62;101172.84;5058634;28;20052;-46
2023/06/05 09:48:40;;;;;;;6.35;3.75;;;;;;;14.37;57.55;101181.56;5031901;28;20041;-48
2023/06/05 09:51:10;;;;;;;4.35;2.70;;;;;;;14.51;57.03;101188.50;5033417;28;20461;-48
2023/06/05 09:53:43;;;;;;;4.88;2.28;;;;;;;14.59;56.62;101189.34;5057127;28;20053;-46
2023/06/05 09:56:14;;;;;;;4.00;2.92;;;;;;;14.70;56.03;101178.03;5054926;28;20049;-48
2023/06/05 10:01:24;;;;;;;6.00;1.67;;;;;;;14.90;55.65;101185.88;5040430;27;20415;-48
2023/06/05 10:03:57;;;;;;;4.13;3.00;;;;;;;15.02;55.78;101185.81;5006781;28;20465;-49
2023/06/05 10:06:27;;;;;;;4.50;1.55;;;;;;;15.13;55.34;101177.97;5020382;28;20049;-46
2023/06/05 10:08:56;;;;;;;7.50;1.60;;;;;;;15.24;55.22;101182.28;5035841;28;20543;-48
2023/06/05 10:11:26;;;;;;;5.07;1.50;;;;;;;15.29;54.50;101183.13;5025164;28;20060;-48
2023/06/05 10:13:54;;;;;;;3.08;1.58;;;;;;;15.36;54.79;101184.81;5038439;28;20060;-48
2023/06/05 10:16:21;;;;;;;3.03;1.40;;;;;;;15.39;54.87;101179.59;5032522;28;20080;-47
2023/06/05 10:18:54;;;;;;;4.93;1.80;;;;;;;15.46;54.33;101184.78;5028663;28;20042;-48
2023/06/05 10:21:21;;;;;;;5.03;2.25;;;;;;;15.48;54.64;101188.25;5033571;28;20045;-46
2023/06/05 10:23:53;;;;;;;3.80;1.75;;;;;;;15.57;55.13;101187.34;5026802;28;20127;-48
2023/06/05 10:26:57;;;;;;;4.55;1.98;;;;;;;15.65;54.80;101186.44;5049004;28;20119;-50
2023/06/05 10:33:03;;;;;;;7.43;1.63;;;;;;;15.80;54.25;101184.59;5018279;27;20410;-44
2023/06/05 10:35:49;;;;;;;3.75;2.03;;;;;;;15.85;53.82;101193.28;4998665;28;20058;-47
2023/06/05 10:38:18;;;;;;;3.75;1.85;;;;;;;15.99;53.54;101194.94;4989503;28;20093;-48
2023/06/05 10:40:55;;;;;;;4.57;2.28;;;;;;;16.05;52.65;101194.94;4993302;28;20038;-46
2023/06/05 10:46:22;;;;;;;4.72;2.85;;;;;;;16.23;52.42;101193.03;5088313;27;20404;-45
2023/06/05 10:57:02;;;;;;;3.88;2.15;;;;;;;16.51;51.80;101192.81;5056914;27;21096;-49
2023/06/05 10:59:33;;;;;;;3.95;1.90;;;;;;;16.53;52.17;101193.66;5031792;28;20128;-51
2023/06/05 11:07:23;;;;;;;3.92;3.13;;;;;;;16.76;51.97;101182.97;5020841;28;20407;-47
2023/06/05 11:10:16;;;;;;;5.55;2.92;;;;;;;16.74;51.71;101189.97;5001949;28;20042;-51
2023/06/05 11:18:35;;;;;;;3.58;1.73;;;;;;;16.90;51.52;101184.56;5121419;27;20399;-48
2023/06/05 11:21:02;;;;;;;7.70;2.03;;;;;;;17.03;51.47;101180.06;5070920;28;20073;-51
2023/06/05 11:23:30;;;;;;;3.65;1.77;;;;;;;17.14;51.51;101178.22;5067663;28;20040;-48
2023/06/05 11:26:17;;;;;;;4.70;1.85;;;;;;;17.18;50.86;101173.81;5059684;28;20408;-50
2023/06/05 11:28:44;;;;;;;5.28;2.15;;;;;;;17.28;51.21;101170.19;5077144;28;20127;-51
2023/06/05 11:31:11;;;;;;;4.07;2.10;;;;;;;17.44;50.78;101178.72;5071600;28;20110;-45
2023/06/05 11:33:38;;;;;;;3.97;2.70;;;;;;;17.52;50.23;101177.72;5059165;28;20128;-50
2023/06/05 11:36:07;;;;;;;6.85;1.85;;;;;;;17.63;51.05;101170.59;5069843;28;20410;-46
2023/06/05 11:38:34;;;;;;;6.15;1.65;;;;;;;17.71;50.08;101166.13;5061939;28;20045;-47
2023/06/05 11:41:06;;;;;;;5.97;2.13;;;;;;;17.77;49.98;101172.16;5071091;28;20052;-45
2023/06/05 11:43:33;;;;;;;3.33;1.80;;;;;;;17.84;50.15;101163.31;5054447;28;20040;-45
2023/06/05 11:46:00;;;;;;;6.13;2.85;;;;;;;17.94;50.13;101169.28;5082182;28;20067;-47
2023/06/05 11:48:29;;;;;;;4.57;2.35;;;;;;;17.93;48.73;101168.41;5071874;28;20059;-48
2023/06/05 11:51:02;;;;;;;5.88;2.00;;;;;;;18.10;50.20;101164.69;5080306;28;20049;-46
2023/06/05 11:53:30;;;;;;;4.03;2.38;;;;;;;18.39;50.13;101162.44;5080222;28;20044;-47
2023/06/05 11:56:06;;;;;;;6.47;2.25;;;;;;;18.65;49.08;101156.75;5080175;28;20504;-45
2023/06/05 11:58:38;;;;;;;3.47;1.83;;;;;;;18.87;48.56;101161.56;5081911;28;20135;-50
2023/06/05 12:03:42;;;;;;;5.60;3.28;;;;;;;19.12;48.01;101143.59;5030934;28;20399;-46
2023/06/05 12:06:12;;;;;;;5.80;3.58;;;;;;;19.32;47.96;101142.28;5000406;28;20145;-48
2023/06/05 12:08:39;;;;;;;4.13;3.05;;;;;;;19.48;47.36;101153.34;5002289;28;20069;-46
2023/06/05 12:11:25;;;;;;;5.55;3.42;;;;;;;19.52;47.36;101139.22;4999442;28;20042;-45